Bellrose Village, New York
Current Conditions -  °F | °C
As of 10:51 PM on Wednesday 22 Oct 2014 (Local Time) from KJFK Reporting Station
Moderate Rain Moderate Rain  
Wind Chill: 52°   Ceiling: 1400
Heat Index: 52°   Visibility: 5mi
Dew Point: 48°   Wind: 22mph
Humidity: 86%   Direction: 350°N
Pressure: 29.72"   Gusts: 30mph
Location:  40.7233°N, 73.7034°W
Report Text: KJFK 230251Z 35019G26KT 5SM RA BR OVC014 11/09 A2972 RMK AO2 PK WND 35027/0239 SLP065 P0015 60024 T01110089 56013
Loading
Personal Weather Stations






























Interactive Weather Map
Tropical Storm Tracking
New forecast layout! Learn more

10-Day Weather Forecast

Advertisements
Track Severe Weather on mobile